createdAt,value
2018-06-18T00:00:47.073Z,94.69
2018-06-18T00:01:47.071Z,95.65
2018-06-18T00:02:47.072Z,95.17
2018-06-18T00:03:47.069Z,94.69
2018-06-18T00:04:47.068Z,94.69
2018-06-18T00:05:47.068Z,94.31
2018-06-18T00:06:47.070Z,95.26
2018-06-18T00:07:47.066Z,95.65
2018-06-18T00:08:47.064Z,97.38
2018-06-18T00:09:47.061Z,96.22
2018-06-18T00:10:47.063Z,95.94
2018-06-18T00:11:47.058Z,95.56
2018-06-18T00:12:47.057Z,95.07
2018-06-18T00:13:47.057Z,95.26
2018-06-18T00:14:47.055Z,95.07
2018-06-18T00:15:47.054Z,94.89
2018-06-18T00:16:47.053Z,95.26
2018-06-18T00:17:47.054Z,94.98
2018-06-18T00:18:47.051Z,94.31
2018-06-18T00:19:47.052Z,94.21
2018-06-18T00:20:47.042Z,94.59
2018-06-18T00:21:47.048Z,95.36
2018-06-18T00:22:47.045Z,93.83
2018-06-18T00:23:47.046Z,93.83
2018-06-18T00:24:47.040Z,93.26
2018-06-18T00:25:47.043Z,94.02
2018-06-18T00:26:47.040Z,93.83
2018-06-18T00:27:47.040Z,93.73
2018-06-18T00:28:47.042Z,93.44
2018-06-18T00:29:47.035Z,93.83
2018-06-18T00:30:47.035Z,93.83
2018-06-18T00:31:47.036Z,93.93
2018-06-18T00:32:47.031Z,93.93
2018-06-18T00:33:47.031Z,93.93
2018-06-18T00:34:47.030Z,94.59
2018-06-18T00:35:47.030Z,95.07
2018-06-18T00:36:47.028Z,94.98
2018-06-18T00:37:47.026Z,95.84
2018-06-18T00:38:47.026Z,96.03
2018-06-18T00:39:47.022Z,96.70
2018-06-18T00:40:47.023Z,96.80
2018-06-18T00:41:47.020Z,97.18
2018-06-18T00:42:47.020Z,96.80
2018-06-18T00:43:47.019Z,97.18
2018-06-18T00:44:47.015Z,96.89
2018-06-18T00:45:47.012Z,96.42
2018-06-18T00:46:47.014Z,96.61
2018-06-18T00:47:47.013Z,96.42
2018-06-18T00:48:47.011Z,97.09
2018-06-18T00:49:47.009Z,97.18
2018-06-18T00:50:47.009Z,96.61
2018-06-18T00:51:47.004Z,96.80
2018-06-18T00:52:47.005Z,96.61
2018-06-18T00:53:47.005Z,97.28
2018-06-18T00:54:47.003Z,97.95
2018-06-18T00:55:47.005Z,97.95
2018-06-18T00:56:47.000Z,96.22
2018-06-18T00:57:46.993Z,97.09
2018-06-18T00:58:47.000Z,96.70
2018-06-18T00:59:47.001Z,96.80
2018-06-18T01:00:46.996Z,96.80
2018-06-18T01:01:47.007Z,96.99
2018-06-18T01:02:46.991Z,96.80
2018-06-18T01:03:46.994Z,96.61
2018-06-18T01:04:46.991Z,96.22
2018-06-18T01:05:46.988Z,96.80
2018-06-18T01:06:46.988Z,96.70
2018-06-18T01:07:46.986Z,97.38
2018-06-18T01:08:46.984Z,97.38
2018-06-18T01:09:46.984Z,97.76
2018-06-18T01:10:46.982Z,97.28
2018-06-18T01:11:46.981Z,97.85
2018-06-18T01:12:46.979Z,96.89
2018-06-18T01:13:46.979Z,98.24
2018-06-18T01:14:46.981Z,97.47
2018-06-18T01:15:46.977Z,97.38
2018-06-18T01:16:46.971Z,96.61
2018-06-18T01:17:46.972Z,96.80
2018-06-18T01:18:46.969Z,97.38
2018-06-18T01:19:50.455Z,98.72
2018-06-18T01:20:46.967Z,97.76
2018-06-18T01:21:46.966Z,98.72
2018-06-18T01:22:46.966Z,98.24
2018-06-18T01:23:46.963Z,97.38
2018-06-18T01:24:46.961Z,97.95
2018-06-18T01:25:46.962Z,97.23
2018-06-18T01:26:46.959Z,97.66
2018-06-18T01:27:46.961Z,98.05
2018-06-18T01:28:46.956Z,98.33
2018-06-18T01:29:46.954Z,98.62
2018-06-18T01:30:46.954Z,98.52
2018-06-18T01:31:46.952Z,98.05
2018-06-18T01:32:46.950Z,97.85
2018-06-18T01:33:46.950Z,98.67
2018-06-18T01:34:46.950Z,99.01
2018-06-18T01:35:46.952Z,98.91
2018-06-18T01:36:46.944Z,99.01
2018-06-18T01:37:46.944Z,99.19
2018-06-18T01:38:46.944Z,99.39
2018-06-18T01:39:46.942Z,98.81
2018-06-18T01:40:46.939Z,98.43
2018-06-18T01:41:46.938Z,97.95
2018-06-18T01:42:46.939Z,97.28
2018-06-18T01:43:46.935Z,97.61
2018-06-18T01:44:46.934Z,97.33
2018-06-18T01:45:46.932Z,97.09
2018-06-18T01:46:46.929Z,96.84
2018-06-18T01:47:46.928Z,96.03
2018-06-18T01:48:46.927Z,95.60
2018-06-18T01:49:46.927Z,95.41
2018-06-18T01:50:46.924Z,95.98
2018-06-18T01:51:46.922Z,96.84
2018-06-18T01:52:46.920Z,96.75
2018-06-18T01:53:46.920Z,95.98
2018-06-18T01:54:46.920Z,95.12
2018-06-18T01:55:46.918Z,94.45
2018-06-18T01:56:46.916Z,94.21
2018-06-18T01:57:46.915Z,94.55
2018-06-18T01:58:46.912Z,95.07
2018-06-18T01:59:46.911Z,94.69
2018-06-18T02:00:46.909Z,93.30
2018-06-18T02:01:46.908Z,93.78
2018-06-18T02:02:46.907Z,95.26
2018-06-18T02:03:46.904Z,95.26
2018-06-18T02:04:46.902Z,94.21
2018-06-18T02:05:46.902Z,96.13
2018-06-18T02:06:46.902Z,96.99
2018-06-18T02:07:46.899Z,96.03
2018-06-18T02:08:46.906Z,96.75
2018-06-18T02:09:46.897Z,95.22
2018-06-18T02:10:46.894Z,96.75
2018-06-18T02:11:46.894Z,95.89
2018-06-18T02:12:46.891Z,96.75
2018-06-18T02:13:46.889Z,97.76
2018-06-18T02:14:46.888Z,97.14
2018-06-18T02:15:46.889Z,98.14
2018-06-18T02:16:46.885Z,97.85
2018-06-18T02:17:46.884Z,96.66
2018-06-18T02:18:46.883Z,97.04
2018-06-18T02:19:46.882Z,97.33
2018-06-18T02:20:46.881Z,97.90
2018-06-18T02:21:46.879Z,98.00
2018-06-18T02:22:46.877Z,98.28
2018-06-18T02:23:46.877Z,99.99
2018-06-18T02:24:46.874Z,99.99
2018-06-18T02:25:46.873Z,98.96
2018-06-18T02:26:46.871Z,99.99
2018-06-18T02:27:46.870Z,99.99
2018-06-18T02:28:46.870Z,99.15
2018-06-18T02:29:46.866Z,98.38
2018-06-18T02:30:46.865Z,99.05
2018-06-18T02:31:46.865Z,98.47
2018-06-18T02:32:46.863Z,97.61
2018-06-18T02:33:46.860Z,96.84
2018-06-18T02:34:46.860Z,96.94
2018-06-18T02:35:46.857Z,96.47
2018-06-18T02:36:46.856Z,95.89
2018-06-18T02:37:46.855Z,95.51
2018-06-18T02:38:46.855Z,95.98
2018-06-18T02:39:46.852Z,94.84
2018-06-18T02:40:46.850Z,95.22
2018-06-18T02:41:46.852Z,95.22
2018-06-18T02:42:46.848Z,95.98
2018-06-18T02:43:46.845Z,95.41
2018-06-18T02:44:46.844Z,95.98
2018-06-18T02:45:46.842Z,95.51
2018-06-18T02:46:46.841Z,95.31
2018-06-18T02:47:46.841Z,93.98
2018-06-18T02:48:46.837Z,94.26
2018-06-18T02:49:46.837Z,94.35
2018-06-18T02:50:46.836Z,93.98
2018-06-18T02:51:46.833Z,93.69
2018-06-18T02:52:46.832Z,93.78
2018-06-18T02:53:46.829Z,95.22
2018-06-18T02:54:46.827Z,95.70
2018-06-18T02:55:46.826Z,96.18
2018-06-18T02:56:46.827Z,95.98
2018-06-18T02:57:46.823Z,96.08
2018-06-18T02:58:46.821Z,94.84
2018-06-18T02:59:46.820Z,94.55
2018-06-18T03:00:46.818Z,94.07
2018-06-18T03:01:46.816Z,94.74
2018-06-18T03:02:46.814Z,96.75
2018-06-18T03:03:46.814Z,95.60
2018-06-18T03:04:46.815Z,97.23
2018-06-18T03:05:46.809Z,97.90
2018-06-18T03:06:46.809Z,97.61
2018-06-18T03:07:46.808Z,97.52
2018-06-18T03:08:46.806Z,98.00
2018-06-18T03:09:46.803Z,98.47
2018-06-18T03:10:46.802Z,99.63
2018-06-18T03:11:46.800Z,99.99
2018-06-18T03:12:46.799Z,99.99
2018-06-18T03:13:46.801Z,97.95
2018-06-18T03:14:46.795Z,98.52
2018-06-18T03:15:46.793Z,99.00
2018-06-18T03:16:46.791Z,99.99
2018-06-18T03:17:46.790Z,99.38
2018-06-18T03:18:46.789Z,97.38
2018-06-18T03:19:46.788Z,97.18
2018-06-18T03:20:46.784Z,97.18
2018-06-18T03:21:46.782Z,97.18
2018-06-18T03:22:46.780Z,96.70
2018-06-18T03:23:46.780Z,96.80
2018-06-18T03:24:46.776Z,96.89
2018-06-18T03:25:46.779Z,97.09
2018-06-18T03:26:46.787Z,97.09
2018-06-18T03:27:46.771Z,96.61
2018-06-18T03:28:46.768Z,96.61
2018-06-18T03:29:46.767Z,97.18
2018-06-18T03:30:46.767Z,96.80
2018-06-18T03:31:46.769Z,95.46
2018-06-18T03:32:46.764Z,95.22
2018-06-18T03:33:46.764Z,95.84
2018-06-18T03:34:46.758Z,95.46
2018-06-18T03:35:46.757Z,95.94
2018-06-18T03:36:46.756Z,95.56
2018-06-18T03:37:46.754Z,96.47
2018-06-18T03:38:46.751Z,95.89
2018-06-18T03:39:46.748Z,95.98
2018-06-18T03:40:46.746Z,97.14
2018-06-18T03:41:46.745Z,96.66
2018-06-18T03:42:46.743Z,95.41
2018-06-18T03:43:46.742Z,95.12
2018-06-18T03:44:46.741Z,95.22
2018-06-18T03:45:46.737Z,95.03
2018-06-18T03:46:46.737Z,94.93
2018-06-18T03:47:46.735Z,95.89
2018-06-18T03:48:46.732Z,95.03
2018-06-18T03:49:46.730Z,95.60
2018-06-18T03:50:46.729Z,95.60
2018-06-18T03:51:46.727Z,95.03
2018-06-18T03:52:46.726Z,95.03
2018-06-18T03:53:46.725Z,95.60
2018-06-18T03:54:46.721Z,96.75
2018-06-18T03:55:46.719Z,97.85
2018-06-18T03:56:46.721Z,98.57
2018-06-18T03:57:46.716Z,99.99
2018-06-18T03:58:46.711Z,99.99
2018-06-18T03:59:46.713Z,99.99
2018-06-18T04:00:46.711Z,99.99
2018-06-18T04:01:46.708Z,99.99
2018-06-18T04:02:46.709Z,99.99
2018-06-18T04:03:46.707Z,99.24
2018-06-18T04:04:46.704Z,98.96
2018-06-18T04:05:46.702Z,99.99
2018-06-18T04:06:46.704Z,99.15
2018-06-18T04:07:46.699Z,99.34
2018-06-18T04:08:46.697Z,99.05
2018-06-18T04:09:46.695Z,98.28
2018-06-18T04:10:46.709Z,97.33
2018-06-18T04:11:46.692Z,96.94
2018-06-18T04:12:46.694Z,96.75
2018-06-18T04:13:46.689Z,96.18
2018-06-18T04:14:46.688Z,94.84
2018-06-18T04:15:46.684Z,94.55
2018-06-18T04:16:46.682Z,94.74
2018-06-18T04:17:46.690Z,95.03
2018-06-18T04:18:46.679Z,96.08
2018-06-18T04:19:46.685Z,94.55
2018-06-18T04:20:46.677Z,93.78
2018-06-18T04:21:46.680Z,93.02
2018-06-18T04:22:46.674Z,92.63
2018-06-18T04:23:46.676Z,92.63
2018-06-18T04:24:46.692Z,92.35
2018-06-18T04:25:46.670Z,93.02
2018-06-18T04:26:46.669Z,93.59
2018-06-18T04:27:46.667Z,93.26
2018-06-18T04:28:46.665Z,92.39
2018-06-18T04:29:46.663Z,93.83
2018-06-18T04:30:46.661Z,93.21
2018-06-18T04:31:46.660Z,93.35
2018-06-18T04:32:46.657Z,93.63
2018-06-18T04:33:46.656Z,93.44
2018-06-18T04:34:46.655Z,93.44
2018-06-18T04:35:46.654Z,95.17
2018-06-18T04:36:46.651Z,94.79
2018-06-18T04:37:46.670Z,93.93
2018-06-18T04:38:46.652Z,94.17
2018-06-18T04:39:46.649Z,94.64
2018-06-18T04:40:46.645Z,94.17
2018-06-18T04:41:46.643Z,95.41
2018-06-18T04:42:46.642Z,94.93
2018-06-18T04:43:46.643Z,93.78
2018-06-18T04:44:46.687Z,95.60
2018-06-18T04:45:46.637Z,93.78
2018-06-18T04:46:46.640Z,93.49
2018-06-18T04:47:46.635Z,94.07
2018-06-18T04:48:46.633Z,94.17
2018-06-18T04:49:46.631Z,93.21
2018-06-18T04:50:46.629Z,94.84
2018-06-18T04:51:46.629Z,94.26
2018-06-18T04:52:46.629Z,95.31
2018-06-18T04:53:46.624Z,94.64
2018-06-18T04:54:46.624Z,93.88
2018-06-18T04:55:46.621Z,95.12
2018-06-18T04:56:46.637Z,96.47
2018-06-18T04:57:46.620Z,95.12
2018-06-18T04:58:46.618Z,94.35
2018-06-18T04:59:46.613Z,94.45
2018-06-18T05:00:46.613Z,94.93
2018-06-18T05:01:46.614Z,95.60
2018-06-18T05:02:46.611Z,96.75
2018-06-18T05:03:46.611Z,97.14
2018-06-18T05:04:46.608Z,96.84
2018-06-18T05:05:46.606Z,97.23
2018-06-18T05:06:46.605Z,98.19
2018-06-18T05:07:46.607Z,97.14
2018-06-18T05:08:46.603Z,97.80
2018-06-18T05:09:46.600Z,97.80
2018-06-18T05:10:46.599Z,99.24
2018-06-18T05:11:46.602Z,98.67
2018-06-18T05:12:46.596Z,98.57
2018-06-18T05:13:46.593Z,99.53
2018-06-18T05:14:46.593Z,98.38
2018-06-18T05:15:46.591Z,98.76
2018-06-18T05:16:46.589Z,99.99
2018-06-18T05:17:46.589Z,99.99
2018-06-18T05:18:46.590Z,99.99
2018-06-18T05:19:46.585Z,99.99
2018-06-18T05:20:46.618Z,99.34
2018-06-18T05:21:46.585Z,99.24
2018-06-18T05:22:46.585Z,98.38
2018-06-18T05:23:46.580Z,98.38
2018-06-18T05:24:46.574Z,97.23
2018-06-18T05:25:46.574Z,97.28
2018-06-18T05:26:46.575Z,96.70
2018-06-18T05:27:46.573Z,95.84
2018-06-18T05:28:46.567Z,95.79
2018-06-18T05:29:46.569Z,95.79
2018-06-18T05:30:46.566Z,93.40
2018-06-18T05:31:46.566Z,93.78
2018-06-18T05:32:46.562Z,93.63
2018-06-18T05:33:46.562Z,92.68
2018-06-18T05:34:46.562Z,91.05
2018-06-18T05:35:46.563Z,90.08
2018-06-18T05:36:46.558Z,89.89
2018-06-18T05:37:46.554Z,90.08
2018-06-18T05:38:46.554Z,89.32
2018-06-18T05:39:46.552Z,89.36
2018-06-18T05:40:46.554Z,88.02
2018-06-18T05:41:46.549Z,86.58
2018-06-18T05:42:46.547Z,87.92
2018-06-18T05:43:46.548Z,88.49
2018-06-18T05:44:46.543Z,88.35
2018-06-18T05:45:46.544Z,87.11
2018-06-18T05:46:46.541Z,87.78
2018-06-18T05:47:46.544Z,88.45
2018-06-18T05:48:46.539Z,88.26
2018-06-18T05:49:46.537Z,86.92
2018-06-18T05:50:46.568Z,87.30
2018-06-18T05:51:46.535Z,87.98
2018-06-18T05:52:46.531Z,87.21
2018-06-18T05:53:46.531Z,87.98
2018-06-18T05:54:46.529Z,87.98
2018-06-18T05:55:46.530Z,88.45
2018-06-18T05:56:46.526Z,87.21
2018-06-18T05:57:46.527Z,88.98
2018-06-18T05:58:46.528Z,89.36
2018-06-18T05:59:46.523Z,87.05
2018-06-18T06:00:46.521Z,88.21
2018-06-18T06:01:46.521Z,87.82
2018-06-18T06:02:46.521Z,86.58
2018-06-18T06:03:46.517Z,87.05
2018-06-18T06:04:46.515Z,86.87
2018-06-18T06:05:46.514Z,84.27
2018-06-18T06:06:46.513Z,85.24
2018-06-18T06:07:46.512Z,84.75
2018-06-18T06:08:46.509Z,86.38
2018-06-18T06:09:46.508Z,84.85
2018-06-18T06:10:46.509Z,87.15
2018-06-18T06:11:46.508Z,85.24
2018-06-18T06:12:46.519Z,85.42
2018-06-18T06:13:46.537Z,85.24
2018-06-18T06:14:46.503Z,84.56
2018-06-18T06:15:46.501Z,84.08
2018-06-18T06:16:46.537Z,84.08
2018-06-18T06:17:46.499Z,84.22
2018-06-18T06:18:46.497Z,83.70
2018-06-18T06:19:46.494Z,83.26
2018-06-18T06:20:46.493Z,83.45
2018-06-18T06:21:46.494Z,83.36
2018-06-18T06:22:46.490Z,83.54
2018-06-18T06:23:46.491Z,81.92
2018-06-18T06:24:46.488Z,81.43
2018-06-18T06:25:46.488Z,81.53
2018-06-18T06:26:46.488Z,82.15
2018-06-18T06:27:46.489Z,81.57
2018-06-18T06:28:46.482Z,80.66
2018-06-18T06:29:46.484Z,81.48
2018-06-18T06:30:46.481Z,80.51
2018-06-18T06:31:46.480Z,80.71
2018-06-18T06:32:46.481Z,80.96
2018-06-18T06:33:46.477Z,79.80
2018-06-18T06:34:46.477Z,80.71
2018-06-18T06:35:46.478Z,80.61
2018-06-18T06:36:46.479Z,80.71
2018-06-18T06:37:46.475Z,80.80
2018-06-18T06:38:46.476Z,81.48
2018-06-18T06:39:46.472Z,81.57
2018-06-18T06:40:46.472Z,79.36
2018-06-18T06:41:46.470Z,79.94
2018-06-18T06:42:46.468Z,77.83
2018-06-18T06:43:46.468Z,78.69
2018-06-18T06:44:46.469Z,80.04
2018-06-18T06:45:46.465Z,79.98
2018-06-18T06:46:46.465Z,78.44
2018-06-18T06:47:46.464Z,79.69
2018-06-18T06:48:46.464Z,78.92
2018-06-18T06:49:46.462Z,78.15
2018-06-18T06:50:46.459Z,78.15
2018-06-18T06:51:46.461Z,77.76
2018-06-18T06:52:46.457Z,77.96
2018-06-18T06:53:46.458Z,77.19
2018-06-18T06:54:46.472Z,78.06
2018-06-18T06:55:46.454Z,77.96
2018-06-18T06:56:46.453Z,78.44
2018-06-18T06:57:46.454Z,78.06
2018-06-18T06:58:46.451Z,77.19
2018-06-18T06:59:46.449Z,77.29
2018-06-18T07:00:46.449Z,77.29
2018-06-18T07:01:46.448Z,76.61
2018-06-18T07:02:46.448Z,76.32
2018-06-18T07:03:46.451Z,76.71
2018-06-18T07:04:46.443Z,76.90
2018-06-18T07:05:46.444Z,77.00
2018-06-18T07:06:46.443Z,76.56
2018-06-18T07:07:46.451Z,76.46
2018-06-18T07:08:46.442Z,74.54
2018-06-18T07:09:46.439Z,75.40
2018-06-18T07:10:46.435Z,76.14
2018-06-18T07:11:46.438Z,75.79
2018-06-18T07:12:46.436Z,75.69
2018-06-18T07:13:46.492Z,75.59
2018-06-18T07:14:46.435Z,76.46
2018-06-18T07:15:46.436Z,75.82
2018-06-18T07:16:46.432Z,74.63
2018-06-18T07:17:46.434Z,75.34
2018-06-18T07:18:46.431Z,75.82
2018-06-18T07:19:46.430Z,74.57
2018-06-18T07:20:46.430Z,72.07
2018-06-18T07:21:46.426Z,71.59
2018-06-18T07:22:46.428Z,70.53
2018-06-18T07:23:46.427Z,70.62
2018-06-18T07:24:46.426Z,71.59
2018-06-18T07:25:46.428Z,70.15
2018-06-18T07:26:46.425Z,71.11
2018-06-18T07:27:46.427Z,70.82
2018-06-18T07:28:46.424Z,71.20
2018-06-18T07:29:46.424Z,70.24
2018-06-18T07:30:46.441Z,70.05
2018-06-18T07:31:46.422Z,71.11
2018-06-18T07:32:46.421Z,71.59
2018-06-18T07:33:46.419Z,72.26
2018-06-18T07:34:46.419Z,70.92
2018-06-18T07:35:46.420Z,70.05
2018-06-18T07:36:46.417Z,69.09
2018-06-18T07:37:46.418Z,68.99
2018-06-18T07:38:46.417Z,68.51
2018-06-18T07:39:46.416Z,67.93
2018-06-18T07:40:46.417Z,68.03
2018-06-18T07:41:46.416Z,69.85
2018-06-18T07:42:46.416Z,69.99
2018-06-18T07:43:46.414Z,68.35
2018-06-18T07:44:46.416Z,68.03
2018-06-18T07:45:46.414Z,68.60
2018-06-18T07:46:46.409Z,69.57
2018-06-18T07:47:46.411Z,69.51
2018-06-18T07:48:46.408Z,68.54
2018-06-18T07:49:46.407Z,68.54
2018-06-18T07:50:46.407Z,68.93
2018-06-18T07:51:46.449Z,69.02
2018-06-18T07:52:46.405Z,70.28
2018-06-18T07:53:46.406Z,68.16
2018-06-18T07:54:46.408Z,68.16
2018-06-18T07:55:46.403Z,68.06
2018-06-18T07:56:46.401Z,68.06
2018-06-18T07:57:46.401Z,68.54
2018-06-18T07:58:46.398Z,67.10
2018-06-18T07:59:46.398Z,67.39
2018-06-18T08:00:46.396Z,67.81
2018-06-18T08:01:46.399Z,68.19
2018-06-18T08:02:46.398Z,68.10
2018-06-18T08:03:46.394Z,68.00
2018-06-18T08:04:46.394Z,67.00
2018-06-18T08:05:46.397Z,67.49
2018-06-18T08:06:46.394Z,68.26
2018-06-18T08:07:46.390Z,67.29
2018-06-18T08:08:46.398Z,67.33
2018-06-18T08:09:46.438Z,66.94
2018-06-18T08:10:46.389Z,65.50
2018-06-18T08:11:46.391Z,65.88
2018-06-18T08:12:46.388Z,67.23
2018-06-18T08:13:46.389Z,65.30
2018-06-18T08:14:46.389Z,64.92
2018-06-18T08:15:46.387Z,65.69
2018-06-18T08:16:46.388Z,65.50
2018-06-18T08:17:46.388Z,64.53
2018-06-18T08:18:46.386Z,64.15
2018-06-18T08:19:46.383Z,65.50
2018-06-18T08:20:46.385Z,65.11
2018-06-18T08:21:46.382Z,66.85
2018-06-18T08:22:46.384Z,65.59
2018-06-18T08:23:46.389Z,65.78
2018-06-18T08:24:46.380Z,66.17
2018-06-18T08:25:46.390Z,66.49
2018-06-18T08:26:46.380Z,65.63
2018-06-18T08:27:46.381Z,63.79
2018-06-18T08:28:46.381Z,64.18
2018-06-18T08:29:46.380Z,64.66
2018-06-18T08:30:46.379Z,64.18
2018-06-18T08:31:46.380Z,62.63
2018-06-18T08:32:46.379Z,63.50
2018-06-18T08:33:46.381Z,62.45
2018-06-18T08:34:46.446Z,61.77
2018-06-18T08:35:46.381Z,62.15
2018-06-18T08:36:46.379Z,61.00
2018-06-18T08:37:46.381Z,61.58
2018-06-18T08:38:46.380Z,61.87
2018-06-18T08:39:46.380Z,62.06
2018-06-18T08:40:46.380Z,63.82
2018-06-18T08:41:46.378Z,61.96
2018-06-18T08:42:46.378Z,63.60
2018-06-18T08:43:46.385Z,64.76
2018-06-18T08:44:46.378Z,63.41
2018-06-18T08:45:46.377Z,63.98
2018-06-18T08:46:46.373Z,63.50
2018-06-18T08:47:46.378Z,62.12
2018-06-18T08:48:46.377Z,62.83
2018-06-18T08:49:46.378Z,63.70
2018-06-18T08:50:46.486Z,61.58
2018-06-18T08:51:46.378Z,60.80
2018-06-18T08:52:46.377Z,60.13
2018-06-18T08:53:46.383Z,60.52
2018-06-18T08:54:46.383Z,60.80
2018-06-18T08:55:46.378Z,61.10
2018-06-18T08:56:46.378Z,60.71
2018-06-18T08:57:46.380Z,62.06
2018-06-18T08:58:46.376Z,60.90
2018-06-18T08:59:46.374Z,61.10
2018-06-18T09:00:46.377Z,62.38
2018-06-18T09:01:46.380Z,61.10
2018-06-18T09:02:46.377Z,60.80
2018-06-18T09:03:46.377Z,61.32
2018-06-18T09:04:46.377Z,62.86
2018-06-18T09:05:46.375Z,61.99
2018-06-18T09:06:46.379Z,61.03
2018-06-18T09:07:46.377Z,61.90
2018-06-18T09:08:46.376Z,61.03
2018-06-18T09:09:46.375Z,61.00
2018-06-18T09:10:46.376Z,62.63
2018-06-18T09:11:46.375Z,62.18
2018-06-18T09:12:46.373Z,62.28
2018-06-18T09:13:46.374Z,62.28
2018-06-18T09:14:46.376Z,62.79
2018-06-18T09:15:46.375Z,61.93
2018-06-18T09:16:46.377Z,62.60
2018-06-18T09:17:46.374Z,62.15
2018-06-18T09:18:46.374Z,62.22
2018-06-18T09:19:46.376Z,61.74
2018-06-18T09:20:46.374Z,61.96
2018-06-18T09:21:46.375Z,60.96
2018-06-18T09:22:46.375Z,62.99
2018-06-18T09:23:46.443Z,62.63
2018-06-18T09:24:46.376Z,60.99
2018-06-18T09:25:46.377Z,61.38
2018-06-18T09:26:46.378Z,62.34
2018-06-18T09:27:46.381Z,62.12
2018-06-18T09:28:46.378Z,61.16
2018-06-18T09:29:46.379Z,61.44
2018-06-18T09:30:46.381Z,62.31
2018-06-18T09:31:46.380Z,62.31
2018-06-18T09:32:46.381Z,63.09
2018-06-18T09:33:46.381Z,59.71
2018-06-18T09:34:46.386Z,61.83
2018-06-18T09:35:46.419Z,62.41
2018-06-18T09:36:46.383Z,62.05
2018-06-18T09:37:46.388Z,59.42
2018-06-18T09:38:46.384Z,57.59
2018-06-18T09:39:46.383Z,58.68
2018-06-18T09:40:46.385Z,59.06
2018-06-18T09:41:46.386Z,59.06
2018-06-18T09:42:46.388Z,58.19
2018-06-18T09:43:46.389Z,59.55
2018-06-18T09:44:46.391Z,59.74
2018-06-18T09:45:46.391Z,59.09
2018-06-18T09:46:46.392Z,58.87
2018-06-18T09:47:46.395Z,58.77
2018-06-18T09:48:46.394Z,58.70
2018-06-18T09:49:46.394Z,60.35
2018-06-18T09:50:46.398Z,57.84
2018-06-18T09:51:46.398Z,56.20
2018-06-18T09:52:46.399Z,56.84
2018-06-18T09:53:46.398Z,56.36
2018-06-18T09:54:46.400Z,57.52
2018-06-18T09:55:46.434Z,57.42
2018-06-18T09:56:46.395Z,57.64
2018-06-18T09:57:46.401Z,56.96
2018-06-18T09:58:46.408Z,56.87
2018-06-18T09:59:46.405Z,57.48
2018-06-18T10:00:46.406Z,58.35
2018-06-18T10:01:46.408Z,57.29
2018-06-18T10:02:46.406Z,57.87
2018-06-18T10:03:46.410Z,58.09
2018-06-18T10:04:46.409Z,56.05
2018-06-18T10:05:46.412Z,53.71
2018-06-18T10:06:46.414Z,53.71
2018-06-18T10:07:46.415Z,53.71
2018-06-18T10:08:46.506Z,54.68
2018-06-18T10:09:46.417Z,55.42
2018-06-18T10:10:46.418Z,56.20
2018-06-18T10:11:46.422Z,56.77
2018-06-18T10:12:46.422Z,56.32
2018-06-18T10:13:46.424Z,56.41
2018-06-18T10:14:46.427Z,55.74
2018-06-18T10:15:46.425Z,56.61
2018-06-18T10:16:46.426Z,54.39
2018-06-18T10:17:46.428Z,54.77
2018-06-18T10:18:46.432Z,56.03
2018-06-18T10:19:46.433Z,56.73
2018-06-18T10:20:46.431Z,56.15
2018-06-18T10:21:46.432Z,54.05
2018-06-18T10:22:46.436Z,54.61
2018-06-18T10:23:46.441Z,52.97
2018-06-18T10:24:46.439Z,54.80
2018-06-18T10:25:46.440Z,57.21
2018-06-18T10:26:46.443Z,56.54
2018-06-18T10:27:46.445Z,56.63
2018-06-18T10:28:46.445Z,55.67
2018-06-18T10:29:46.451Z,56.45
2018-06-18T10:30:46.449Z,55.29
2018-06-18T10:31:46.452Z,55.29
2018-06-18T10:32:46.460Z,54.80
2018-06-18T10:33:46.455Z,54.71
2018-06-18T10:34:46.458Z,55.67
2018-06-18T10:35:46.459Z,56.25
2018-06-18T10:36:46.461Z,55.57
2018-06-18T10:37:46.461Z,57.31
2018-06-18T10:38:46.465Z,57.21
2018-06-18T10:39:46.468Z,57.92
2018-06-18T10:40:46.472Z,54.63
2018-06-18T10:41:46.470Z,54.71
2018-06-18T10:42:46.476Z,54.99
2018-06-18T10:43:46.473Z,55.57
2018-06-18T10:44:46.481Z,56.45
2018-06-18T10:45:46.478Z,55.57
2018-06-18T10:46:46.476Z,55.74
2018-06-18T10:47:46.480Z,57.09
2018-06-18T10:48:46.483Z,55.83
2018-06-18T10:49:46.486Z,56.61
2018-06-18T10:50:46.486Z,56.41
2018-06-18T10:51:46.489Z,56.51
2018-06-18T10:52:46.491Z,55.93
2018-06-18T10:53:46.491Z,57.70
2018-06-18T10:54:46.493Z,55.09
2018-06-18T10:55:46.496Z,54.51
2018-06-18T10:56:46.497Z,55.19
2018-06-18T10:57:46.500Z,53.83
2018-06-18T10:58:46.502Z,53.25
2018-06-18T10:59:46.503Z,56.03
2018-06-18T11:00:46.505Z,54.77
2018-06-18T11:01:46.508Z,56.99
2018-06-18T11:02:46.508Z,57.31
2018-06-18T11:03:46.558Z,56.15
2018-06-18T11:04:46.514Z,54.90
2018-06-18T11:05:46.517Z,57.12
2018-06-18T11:06:46.520Z,57.12
2018-06-18T11:07:46.523Z,56.25
2018-06-18T11:08:46.523Z,56.22
2018-06-18T11:09:46.527Z,56.73
2018-06-18T11:10:46.527Z,57.70
2018-06-18T11:11:46.532Z,57.51
2018-06-18T11:12:46.532Z,57.82
2018-06-18T11:13:46.535Z,57.31
2018-06-18T11:14:46.538Z,57.82
2018-06-18T11:15:46.566Z,56.67
2018-06-18T11:16:46.702Z,55.77
2018-06-18T11:17:46.545Z,56.25
2018-06-18T11:18:46.548Z,56.61
2018-06-18T11:19:46.550Z,57.03
2018-06-18T11:20:46.553Z,56.54
2018-06-18T11:21:46.582Z,56.90
2018-06-18T11:22:46.572Z,57.57
2018-06-18T11:23:46.559Z,58.54
2018-06-18T11:24:46.562Z,57.87
2018-06-18T11:25:46.563Z,58.06
2018-06-18T11:26:46.584Z,58.35
2018-06-18T11:27:46.570Z,58.25
2018-06-18T11:28:46.636Z,59.02
2018-06-18T11:29:46.573Z,58.83
2018-06-18T11:30:46.580Z,58.06
2018-06-18T11:31:46.578Z,57.77
2018-06-18T11:32:46.582Z,57.96
2018-06-18T11:33:46.581Z,57.96
2018-06-18T11:34:46.586Z,59.41
2018-06-18T11:35:46.588Z,60.47
2018-06-18T11:36:46.605Z,59.05
2018-06-18T11:37:46.601Z,58.64
2018-06-18T11:38:46.596Z,58.86
2018-06-18T11:39:46.602Z,58.47
2018-06-18T11:40:46.654Z,58.95
2018-06-18T11:41:46.664Z,58.86
2018-06-18T11:42:46.606Z,59.05
2018-06-18T11:43:46.737Z,58.57
2018-06-18T11:44:46.611Z,58.93
2018-06-18T11:45:46.620Z,58.73
2018-06-18T11:46:46.616Z,58.83
2018-06-18T11:47:46.618Z,59.31
2018-06-18T11:48:46.622Z,59.31
2018-06-18T11:49:46.622Z,59.22
2018-06-18T11:50:46.625Z,59.31
2018-06-18T11:51:46.630Z,60.86
2018-06-18T11:52:46.630Z,59.51
2018-06-18T11:53:46.632Z,58.83
2018-06-18T11:54:46.637Z,58.80
2018-06-18T11:55:46.668Z,58.70
2018-06-18T11:56:46.638Z,59.58
2018-06-18T11:57:46.643Z,59.48
2018-06-18T11:58:46.645Z,59.89
2018-06-18T11:59:46.646Z,59.58
2018-06-18T12:00:46.649Z,59.00
2018-06-18T12:01:46.649Z,59.60
2018-06-18T12:02:46.652Z,59.58
2018-06-18T12:03:46.664Z,59.77
2018-06-18T12:04:46.657Z,60.83
2018-06-18T12:05:46.659Z,59.58
2018-06-18T12:06:46.666Z,60.67
2018-06-18T12:07:46.666Z,60.86
2018-06-18T12:08:46.667Z,60.67
2018-06-18T12:09:46.745Z,59.58
2018-06-18T12:10:46.672Z,59.00
2018-06-18T12:11:46.675Z,59.09
2018-06-18T12:12:46.678Z,60.35
2018-06-18T12:13:46.678Z,59.60
2018-06-18T12:14:46.682Z,59.80
2018-06-18T12:15:46.682Z,59.60
2018-06-18T12:16:46.697Z,59.51
2018-06-18T12:17:46.688Z,59.25
2018-06-18T12:18:46.692Z,60.69
2018-06-18T12:19:46.691Z,59.73
2018-06-18T12:20:46.694Z,60.02
2018-06-18T12:21:46.698Z,60.72
2018-06-18T12:22:46.702Z,59.28
2018-06-18T12:23:46.704Z,58.70
2018-06-18T12:24:46.703Z,58.98
2018-06-18T12:25:46.707Z,59.18
2018-06-18T12:26:46.709Z,59.56
2018-06-18T12:27:46.713Z,59.01
2018-06-18T12:28:46.715Z,57.86
2018-06-18T12:29:46.718Z,57.37
2018-06-18T12:30:46.721Z,59.23
2018-06-18T12:31:46.723Z,59.05
2018-06-18T12:32:46.727Z,57.98
2018-06-18T12:33:46.731Z,57.59
2018-06-18T12:34:46.735Z,57.30
2018-06-18T12:35:46.737Z,56.43
2018-06-18T12:36:46.741Z,56.21
2018-06-18T12:37:46.747Z,55.79
2018-06-18T12:38:46.746Z,57.37
2018-06-18T12:39:46.750Z,58.75
2018-06-18T12:40:46.752Z,57.40
2018-06-18T12:41:46.756Z,56.43
2018-06-18T12:42:46.760Z,55.76
2018-06-18T12:43:46.763Z,54.98
2018-06-18T12:44:46.766Z,56.11
2018-06-18T12:45:46.770Z,56.43
2018-06-18T12:46:46.799Z,55.85
2018-06-18T12:47:46.788Z,54.88
2018-06-18T12:48:46.782Z,54.88
2018-06-18T12:49:46.782Z,54.79
2018-06-18T12:50:46.788Z,55.63
2018-06-18T12:51:46.793Z,56.34
2018-06-18T12:52:46.805Z,57.01